Flight Track Log - Related Links

Times and Time Zones

All times are in EDT time to prevent confusion due to time zone crossing. See the SWA385 flight status page for this flight to view local times or setup timezone preferences in your user account.

Time Position Orientation Groundspeed Altitude Reporting Facility
EDT Latitude Longitude Course Direction KTS MPH feet Rate Location/Type
Tue 04:43:34 PM 38.9000 -77.4667 222° Southwest 185 213 2,100  Level Potomac TRACON
Tue 04:45:20 PM 38.8203 -77.5581 222° Southwest 231 266 6,600 3,146 Climbing Washington Center
Tue 04:46:18 PM 38.8228 -77.6514 272° West 231 266 10,700 3,176 Climbing Washington Center
Tue 04:47:19 PM 38.8314 -77.7528 276° West 288 331 12,900 2,579 Climbing Washington Center
Tue 04:48:19 PM 38.8378 -77.8622 274° West 338 389 15,900 2,926 Climbing Washington Center
Tue 04:49:20 PM 38.8433 -78.0064 273° West 355 409 18,800 2,727 Climbing Washington Center
Tue 04:50:20 PM 38.8489 -78.1372 273° West 367 422 21,400 2,542 Climbing Washington Center
Tue 04:51:18 PM 38.8522 -78.2758 272° West 383 441 23,800 2,218 Climbing Washington Center
Tue 04:52:19 PM 38.8508 -78.4253 269° West 398 458 25,800 2,066 Climbing Washington Center
Tue 04:53:20 PM 38.8514 -78.5797 270° West 422 486 28,000 2,083 Climbing Washington Center
Tue 04:54:20 PM 38.8472 -78.7342 268° West 428 493 30,000 2,067 Climbing Washington Center
Tue 04:55:19 PM 38.8453 -78.8914 269° West 439 505 32,100 2,269 Climbing Washington Center
Tue 04:56:19 PM 38.8431 -79.0458 269° West 439 505 34,500 1,950 Climbing Washington Center
Tue 04:57:19 PM 38.8406 -79.1950 269° West 439 505 36,000 1,289 Climbing Washington Center
Tue 04:58:20 PM 38.8381 -79.3494 269° West 439 505 37,100 1,190 Climbing Washington Center
Tue 04:59:20 PM 38.8247 -79.5033 264° West 439 505 38,400 1,322 Climbing Washington Center
Tue 05:00:18 PM 38.7967 -79.6617 257° West 446 513 39,700 807 Climbing Washington Center
Tue 05:01:19 PM 38.7694 -79.7828 254° West 451 519 40,000 171 Climbing Washington Center
Tue 05:02:03 PM 38.7389 -79.9156 254° West 444 511 40,000  Level Indianapolis Center
Tue 05:03:05 PM 38.7069 -80.0658 255° West 440 506 40,000  Level Indianapolis Center
Tue 05:04:07 PM 38.6692 -80.2453 255° West 435 501 40,000  Level Indianapolis Center
Tue 05:05:09 PM 38.6519 -80.3986 262° West 435 501 40,000  Level Indianapolis Center
Tue 05:06:11 PM 38.6614 -80.5472 275° West 421 484 40,000  Level Indianapolis Center
Tue 05:07:13 PM 38.6731 -80.6975 276° West 426 490 40,000  Level Indianapolis Center
Tue 05:08:15 PM 38.6825 -80.8458 275° West 420 483 40,000  Level Indianapolis Center
Tue 05:09:16 PM 38.6919 -80.9978 275° West 425 489 40,000  Level Indianapolis Center
Tue 05:10:18 PM 38.7022 -81.1469 275° West 422 486 40,000  Level Indianapolis Center
Tue 05:11:20 PM 38.7142 -81.3297 275° West 431 496 40,000  Level Indianapolis Center
Tue 05:12:22 PM 38.7225 -81.4728 274° West 434 499 40,000  Level Indianapolis Center
Tue 05:13:24 PM 38.7339 -81.6536 275° West 436 502 40,000  Level Indianapolis Center
Tue 05:14:25 PM 38.7408 -81.7783 274° West 431 496 40,000  Level Indianapolis Center
Tue 05:15:27 PM 38.7508 -81.9606 274° West 429 494 40,000  Level Indianapolis Center
Tue 05:16:29 PM 38.7517 -82.1144 270° West 435 501 40,000  Level Indianapolis Center
Tue 05:17:31 PM 38.7464 -82.2675 268° West 433 498 40,000  Level Indianapolis Center
Tue 05:18:33 PM 38.7397 -82.4206 267° West 432 497 40,000  Level Indianapolis Center
Tue 05:19:34 PM 38.7350 -82.5742 268° West 432 497 40,000  Level Indianapolis Center
Tue 05:20:36 PM 38.7269 -82.7289 266° West 433 498 40,000  Level Indianapolis Center
Tue 05:21:38 PM 38.7206 -82.8828 267° West 434 499 40,000  Level Indianapolis Center
Tue 05:22:40 PM 38.7119 -83.0711 267° West 440 506 40,000  Level Indianapolis Center
Tue 05:23:42 PM 38.7047 -83.2200 266° West 442 509 40,000  Level Indianapolis Center
Tue 05:24:44 PM 38.6981 -83.3769 267° West 439 505 40,000 -435 Level Indianapolis Center
Tue 05:25:46 PM 38.6894 -83.5353 266° West 441 507 39,100 -488 Descending Indianapolis Center
Tue 05:26:47 PM 38.6817 -83.6964 267° West 447 514 39,000 -49 Descending Indianapolis Center
Tue 05:27:49 PM 38.6725 -83.8800 266° West 440 506 39,000 -339 Level Indianapolis Center
Tue 05:28:51 PM 38.6633 -84.0411 266° West 446 513 38,300 -823 Descending Indianapolis Center
Tue 05:29:53 PM 38.6547 -84.2028 266° West 451 519 37,300 -968 Descending Indianapolis Center
Tue 05:30:55 PM 38.6900 -84.3436 288° West 427 491 36,300 -634 Descending Indianapolis Center
Tue 05:31:56 PM 38.7906 -84.4189 330° Northwest 410 472 36,000 -293 Descending Indianapolis Center
Tue 05:32:58 PM 38.8947 -84.4803 335° Northwest 406 467 35,700 -629 Descending Indianapolis Center
Tue 05:34:00 PM 38.9983 -84.5467 334° Northwest 411 473 34,700 -1,403 Descending Indianapolis Center
Tue 05:35:02 PM 39.1056 -84.6119 335° Northwest 418 481 32,800 -1,984 Descending Indianapolis Center
Tue 05:36:04 PM 39.2122 -84.6744 336° Northwest 418 481 30,600 -1,610 Descending Indianapolis Center
Tue 05:37:05 PM 39.3208 -84.7350 337° Northwest 419 482 29,500 -1,171 Descending Indianapolis Center
Tue 05:38:07 PM 39.4386 -84.8086 334° Northwest 408 470 28,200 -726 Descending Indianapolis Center
Tue 05:39:09 PM 39.5100 -84.8872 320° Northwest 400 460 28,000 -97 Descending Indianapolis Center
Tue 05:40:11 PM 39.6153 -85.0069 319° Northwest 417 480 28,000  Level Indianapolis Center
Tue 05:41:13 PM 39.7017 -85.1058 319° Northwest 416 479 28,000  Level Indianapolis Center
Tue 05:42:15 PM 39.7897 -85.2053 319° Northwest 420 483 28,000  Level Indianapolis Center
Tue 05:43:16 PM 39.8764 -85.3053 318° Northwest 420 483 28,000  Level Indianapolis Center
Tue 05:44:18 PM 39.9644 -85.4053 319° Northwest 422 486 28,000 -581 Level Indianapolis Center
Tue 05:45:20 PM 40.0694 -85.5256 319° Northwest 422 486 26,800 -1,065 Descending Indianapolis Center
Tue 05:46:22 PM 40.1561 -85.6256 319° Northwest 421 484 25,800 -968 Descending Indianapolis Center
Tue 05:47:24 PM 40.2408 -85.7236 319° Northwest 413 475 24,800 -871 Descending Indianapolis Center
Tue 05:48:26 PM 40.3350 -85.8067 326° Northwest 411 473 24,000 -677 Descending Indianapolis Center
Tue 05:49:28 PM 40.4292 -85.8886 326° Northwest 409 471 23,400 -823 Descending Indianapolis Center
Tue 05:50:30 PM 40.5219 -85.9683 327° Northwest 404 465 22,300 -1,113 Descending Indianapolis Center
Tue 05:51:32 PM 40.6308 -86.0647 326° Northwest 397 457 21,100 -968 Descending Indianapolis Center
Tue 05:52:34 PM 40.7208 -86.1425 327° Northwest 391 450 20,300 -1,452 Descending Indianapolis Center
Tue 05:53:36 PM 40.8072 -86.2194 326° Northwest 380 437 18,100 -2,064 Descending Indianapolis Center
Tue 05:54:39 PM 40.8911 -86.2942 326° Northwest 359 413 16,000 -2,304 Descending Chicago Center
Tue 05:55:41 PM 40.9708 -86.3631 327° Northwest 346 398 13,300 -2,371 Descending Chicago Center
Tue 05:56:43 PM 41.0483 -86.4358 325° Northwest 342 394 11,100 -1,210 Descending Chicago Center
Tue 05:57:45 PM 41.1089 -86.5497 305° West 315 362 10,800 -532 Descending Chicago Center
Tue 05:58:47 PM 41.1675 -86.6372 312° West 317 365 10,000 -387 Descending Chicago Center
Tue 05:59:49 PM 41.2306 -86.7283 313° West 316 364 10,000  Level Chicago Center
Tue 06:00:51 PM 41.2853 -86.8144 310° West 310 357 10,000  Level Chicago Center
Tue 06:01:53 PM 41.3428 -86.8997 312° West 311 358 10,000 -97 Level Chicago Center
Tue 06:02:55 PM 41.3967 -86.9786 312° West 294 338 9,800 -871 Descending Chicago Center
Tue 06:03:57 PM 41.4439 -87.0500 311° West 266 306 8,200 -1,756 Descending Chicago Center
Tue 06:04:58 PM 41.4889 -87.1464 302° West 267 307 6,200 -1,415 Descending Chicago Center
Tue 06:06:00 PM 41.5136 -87.2333 291° West 254 292 5,300 -919 Descending Chicago Center
Tue 06:07:02 PM 41.5394 -87.3206 292° West 255 293 4,300 -629 Descending Chicago Center
Tue 06:08:04 PM 41.5669 -87.4072 293° West 255 293 4,000 -145 Descending Chicago Center
Tue 06:09:06 PM 41.5942 -87.4853 295° West 246 283 4,000  Level Chicago Center
Tue 06:10:08 PM 41.6444 -87.5558 314° West 227 261 4,000 -144 Level Chicago Center
Tue 06:11:11 PM 41.6839 -87.6083 315° West 216 249 3,700 -624 Descending Chicago Center
Tue 06:12:13 PM 41.7167 -87.6575 312° West 198 228 2,700 -726 Descending Chicago Center
Tue 06:13:15 PM 41.7567 -87.6947 325° Northwest 202 232 2,200 -290 Descending Chicago Center
Tue 06:14:17 PM 41.8072 -87.6767 15° North 183 211 2,100 -484 Descending Chicago Center
Tue 06:15:19 PM 41.8100 -87.7206 275° West 162 186 1,200 -484 Descending Chicago Center
Tue 06:16:21 PM 41.7889 -87.7583 233° Southwest 156 180 1,100 -97 Descending Chicago Center
Tue 06:18:00 PM 41.7833 -87.7500 North  Level FlightAware Approximate

Login

Don't have an account? Register now (free) for customized features, flight alerts, and more!